Avon Lake, Iowa
Current Conditions -  °F | °C
As of 9:54 PM on Friday 28 Nov 2014 (Local Time) from KDSM Reporting Station
Few Clouds Few Clouds  
Wind Chill: -1°   Ceiling: Unl
Heat Index:   Visibility: 10mi
Dew Point: -1°   Wind: 10mph
Humidity: 73%   Direction: 120°ESE
Pressure: 29.68"   Gusts: NA
Location:  41.4707°N, 93.4797°W
Report Text: KDSM 290354Z 12009KT 10SM FEW250 03/M01 A2968 RMK AO2 SLP058 T00331011
Loading
Personal Weather Stations






























Interactive Weather Map New forecast layout! Learn more

10-Day Weather Forecast

Advertisements
Track Severe Weather on mobile